createdAt,value
2023-01-19T00:04:16.873Z,-0.60
2023-01-19T00:09:22.373Z,-0.50
2023-01-19T00:14:26.811Z,-0.50
2023-01-19T00:19:31.893Z,-0.40
2023-01-19T00:24:35.504Z,-0.40
2023-01-19T00:29:39.315Z,-0.40
2023-01-19T00:34:49.547Z,-0.50
2023-01-19T00:39:53.045Z,-0.30
2023-01-19T00:44:57.187Z,-0.20
2023-01-19T00:50:02.071Z,-0.30
2023-01-19T00:55:06.540Z,-0.10
2023-01-19T01:00:12.380Z,-0.10
2023-01-19T01:05:17.676Z,0.00
2023-01-19T01:10:22.745Z,0.00
2023-01-19T01:15:27.652Z,0.10
2023-01-19T01:20:34.830Z,0.20
2023-01-19T01:25:38.812Z,0.00
2023-01-19T01:30:44.571Z,0.10
2023-01-19T01:35:52.005Z,0.10
2023-01-19T01:40:55.478Z,0.20
2023-01-19T01:45:59.301Z,0.20
2023-01-19T01:51:22.857Z,0.20
2023-01-19T01:56:31.117Z,0.30
2023-01-19T02:01:52.858Z,0.30
2023-01-19T02:07:16.058Z,0.30
2023-01-19T02:12:36.910Z,0.30
2023-01-19T02:17:40.194Z,0.50
2023-01-19T02:22:47.708Z,0.50
2023-01-19T02:27:53.799Z,0.60
2023-01-19T02:33:00.079Z,0.70
2023-01-19T02:38:05.412Z,0.80
2023-01-19T02:43:10.577Z,0.70
2023-01-19T02:48:13.845Z,0.70
2023-01-19T02:53:40.098Z,0.70
2023-01-19T02:58:48.594Z,0.70
2023-01-19T03:03:54.739Z,0.80
2023-01-19T03:09:00.387Z,0.70
2023-01-19T03:14:08.950Z,0.80
2023-01-19T03:19:14.305Z,0.80
2023-01-19T03:24:19.101Z,0.80
2023-01-19T03:29:24.472Z,0.80
2023-01-19T03:34:28.504Z,0.90
2023-01-19T03:39:32.255Z,0.90
2023-01-19T03:44:38.451Z,1.00
2023-01-19T03:49:41.962Z,0.40
2023-01-19T03:54:45.531Z,1.00
2023-01-19T03:59:50.898Z,1.00
2023-01-19T04:04:54.327Z,1.00
2023-01-19T04:09:57.817Z,1.00
2023-01-19T04:15:03.484Z,1.00
2023-01-19T04:20:08.001Z,1.10
2023-01-19T04:25:12.427Z,1.10
2023-01-19T04:30:18.377Z,1.20
2023-01-19T04:35:22.936Z,1.20
2023-01-19T04:40:27.125Z,1.20
2023-01-19T04:45:32.151Z,1.20
2023-01-19T04:50:35.520Z,1.20
2023-01-19T04:55:39.432Z,1.30
2023-01-19T05:00:44.563Z,1.20
2023-01-19T05:05:48.147Z,1.30
2023-01-19T05:10:52.006Z,1.30
2023-01-19T05:15:57.852Z,1.30
2023-01-19T05:21:03.003Z,1.30
2023-01-19T05:26:08.911Z,1.30
2023-01-19T05:31:18.560Z,1.30
2023-01-19T05:36:23.865Z,1.40
2023-01-19T05:41:27.644Z,1.40
2023-01-19T05:46:33.947Z,1.30
2023-01-19T05:51:38.625Z,1.40
2023-01-19T05:56:43.635Z,1.40
2023-01-19T06:01:49.066Z,1.40
2023-01-19T06:06:53.150Z,1.40
2023-01-19T06:11:58.026Z,1.40
2023-01-19T06:17:08.154Z,1.40
2023-01-19T06:22:11.861Z,1.40
2023-01-19T06:27:18.390Z,1.60
2023-01-19T06:32:24.446Z,1.50
2023-01-19T06:37:33.625Z,1.50
2023-01-19T06:42:43.596Z,1.30
2023-01-19T06:47:54.751Z,1.20
2023-01-19T06:52:58.888Z,1.20
2023-01-19T06:58:03.099Z,1.10
2023-01-19T07:03:08.949Z,1.00
2023-01-19T07:08:13.351Z,1.00
2023-01-19T07:13:17.252Z,1.00
2023-01-19T07:18:22.578Z,1.00
2023-01-19T07:23:30.541Z,0.90
2023-01-19T07:28:37.947Z,0.70
2023-01-19T07:33:45.358Z,0.70
2023-01-19T07:38:50.071Z,0.70
2023-01-19T07:43:55.130Z,0.60
2023-01-19T07:49:00.467Z,0.70
2023-01-19T07:54:04.335Z,0.80
2023-01-19T07:59:10.021Z,0.80
2023-01-19T08:04:15.353Z,0.90
2023-01-19T08:09:21.917Z,1.00
2023-01-19T08:14:25.754Z,1.20
2023-01-19T08:19:33.950Z,1.40
2023-01-19T08:24:38.118Z,1.30
2023-01-19T08:29:41.809Z,1.50
2023-01-19T08:34:46.656Z,1.50
2023-01-19T08:39:50.306Z,1.50
2023-01-19T08:44:58.307Z,1.50
2023-01-19T08:50:06.755Z,1.50
2023-01-19T08:55:12.544Z,1.50
2023-01-19T09:00:18.486Z,1.70
2023-01-19T09:05:23.731Z,1.70
2023-01-19T09:10:36.160Z,1.70
2023-01-19T09:15:48.121Z,1.80
2023-01-19T09:20:53.663Z,1.80
2023-01-19T09:26:00.621Z,1.90
2023-01-19T09:31:08.199Z,2.00
2023-01-19T09:36:15.000Z,2.00
2023-01-19T09:41:22.901Z,1.90
2023-01-19T09:46:35.729Z,1.90
2023-01-19T09:51:43.040Z,1.90
2023-01-19T09:56:52.892Z,2.00
2023-01-19T10:02:16.084Z,2.30
2023-01-19T10:07:33.703Z,2.80
2023-01-19T10:12:52.007Z,3.30
2023-01-19T10:18:10.791Z,4.30
2023-01-19T10:23:32.073Z,5.10
2023-01-19T10:28:41.829Z,5.40
2023-01-19T10:33:47.143Z,4.10
2023-01-19T10:38:54.949Z,3.80
2023-01-19T10:44:08.013Z,3.70
2023-01-19T10:49:32.102Z,3.60
2023-01-19T10:54:42.611Z,3.30
2023-01-19T10:59:51.782Z,3.00
2023-01-19T11:04:57.809Z,3.10
2023-01-19T11:10:25.498Z,3.20
2023-01-19T11:15:49.669Z,3.20
2023-01-19T11:20:55.487Z,3.20
2023-01-19T11:26:02.411Z,2.90
2023-01-19T11:31:24.223Z,3.00
2023-01-19T11:36:52.123Z,3.20
2023-01-19T11:41:59.048Z,3.30
2023-01-19T11:47:11.858Z,3.10
2023-01-19T11:52:34.081Z,3.00
2023-01-19T11:57:39.825Z,3.00
2023-01-19T12:02:47.149Z,2.90
2023-01-19T12:07:54.916Z,3.10
2023-01-19T12:13:12.709Z,3.00
2023-01-19T12:18:21.675Z,2.90
2023-01-19T12:23:34.281Z,2.80
2023-01-19T12:28:49.769Z,2.80
2023-01-19T12:33:53.988Z,3.00
2023-01-19T12:39:12.225Z,3.10
2023-01-19T12:44:36.383Z,2.90
2023-01-19T12:49:57.699Z,2.90
2023-01-19T12:55:25.930Z,2.80
2023-01-19T13:00:44.242Z,2.90
2023-01-19T13:05:54.272Z,2.90
2023-01-19T13:11:19.173Z,3.10
2023-01-19T13:17:07.027Z,3.10
2023-01-19T13:23:04.498Z,3.20
2023-01-19T13:28:12.561Z,3.10
2023-01-19T13:33:20.874Z,3.00
2023-01-19T13:38:26.441Z,3.00
2023-01-19T13:43:33.606Z,3.00
2023-01-19T13:48:39.034Z,3.00
2023-01-19T13:53:42.601Z,3.00
2023-01-19T13:58:59.363Z,3.10
2023-01-19T14:04:06.353Z,3.00
2023-01-19T14:09:18.726Z,2.90
2023-01-19T14:14:26.100Z,2.90
2023-01-19T14:19:47.581Z,2.90
2023-01-19T14:24:53.801Z,2.90
2023-01-19T14:29:58.714Z,2.90
2023-01-19T14:35:37.015Z,2.90
2023-01-19T14:40:40.715Z,2.90
2023-01-19T14:45:44.721Z,2.90
2023-01-19T14:51:02.490Z,3.00
2023-01-19T14:56:10.412Z,2.90
2023-01-19T15:01:15.723Z,3.00
2023-01-19T15:06:23.268Z,3.00
2023-01-19T15:11:29.973Z,2.90
2023-01-19T15:16:34.840Z,2.90
2023-01-19T15:21:45.629Z,2.90
2023-01-19T15:26:49.840Z,2.80
2023-01-19T15:31:55.236Z,2.70
2023-01-19T15:37:01.038Z,2.70
2023-01-19T15:42:05.877Z,2.70
2023-01-19T15:47:10.985Z,2.80
2023-01-19T15:52:17.388Z,2.80
2023-01-19T15:57:21.432Z,2.80
2023-01-19T16:02:26.410Z,2.80
2023-01-19T16:07:37.784Z,2.70
2023-01-19T16:12:43.376Z,2.60
2023-01-19T16:17:53.358Z,2.50
2023-01-19T16:23:13.532Z,2.40
2023-01-19T16:28:20.884Z,2.30
2023-01-19T16:33:27.452Z,2.40
2023-01-19T16:38:35.607Z,2.30
2023-01-19T16:43:41.392Z,2.30
2023-01-19T16:48:47.731Z,2.40
2023-01-19T16:54:06.772Z,2.30
2023-01-19T16:59:27.827Z,2.20
2023-01-19T17:04:33.822Z,2.30
2023-01-19T17:09:44.196Z,2.20
2023-01-19T17:14:50.004Z,2.20
2023-01-19T17:19:57.243Z,2.10
2023-01-19T17:25:03.513Z,2.20
2023-01-19T17:30:11.650Z,2.20
2023-01-19T17:35:15.733Z,2.10
2023-01-19T17:40:22.470Z,2.10
2023-01-19T17:45:26.897Z,2.10
2023-01-19T17:50:34.621Z,2.10
2023-01-19T17:55:40.034Z,2.10
2023-01-19T18:00:45.917Z,2.10
2023-01-19T18:05:57.238Z,2.30
2023-01-19T18:11:03.408Z,2.20
2023-01-19T18:16:08.380Z,2.30
2023-01-19T18:21:26.993Z,2.30
2023-01-19T18:26:37.851Z,2.30
2023-01-19T18:31:44.448Z,2.20
2023-01-19T18:36:48.876Z,2.30
2023-01-19T18:41:54.349Z,2.40
2023-01-19T18:46:59.688Z,2.50
2023-01-19T18:52:04.753Z,2.50
2023-01-19T18:57:12.825Z,2.30
2023-01-19T19:02:17.929Z,2.30
2023-01-19T19:07:22.451Z,2.20
2023-01-19T19:12:27.900Z,2.20
2023-01-19T19:17:32.448Z,2.20
2023-01-19T19:22:35.989Z,2.20
2023-01-19T19:27:43.719Z,2.00
2023-01-19T19:32:52.102Z,1.70
2023-01-19T19:37:57.986Z,1.70
2023-01-19T19:43:04.971Z,1.60
2023-01-19T19:48:08.789Z,1.70
2023-01-19T19:53:12.247Z,1.50
2023-01-19T19:58:17.909Z,1.50
2023-01-19T20:03:21.735Z,1.40
2023-01-19T20:08:26.191Z,1.10
2023-01-19T20:13:33.168Z,0.80
2023-01-19T20:18:39.074Z,0.70
2023-01-19T20:23:42.930Z,0.70
2023-01-19T20:28:47.801Z,0.60
2023-01-19T20:33:52.048Z,0.60
2023-01-19T20:38:55.514Z,0.40
2023-01-19T20:44:02.380Z,1.00
2023-01-19T20:49:10.634Z,0.90
2023-01-19T20:54:17.549Z,0.80
2023-01-19T20:59:22.778Z,1.20
2023-01-19T21:04:26.020Z,1.50
2023-01-19T21:09:29.818Z,1.50
2023-01-19T21:14:34.674Z,1.30
2023-01-19T21:19:38.724Z,1.40
2023-01-19T21:24:45.036Z,1.50
2023-01-19T21:29:50.370Z,1.20
2023-01-19T21:34:53.968Z,1.30
2023-01-19T21:39:58.406Z,0.90
2023-01-19T21:45:03.671Z,0.70
2023-01-19T21:50:07.768Z,0.70
2023-01-19T21:55:12.099Z,0.60
2023-01-19T22:00:18.431Z,0.50
2023-01-19T22:05:22.740Z,0.70
2023-01-19T22:10:27.013Z,0.70
2023-01-19T22:15:32.024Z,0.50
2023-01-19T22:20:35.597Z,0.40
2023-01-19T22:25:39.463Z,0.30
2023-01-19T22:30:44.677Z,0.30
2023-01-19T22:35:48.635Z,0.30
2023-01-19T22:40:52.674Z,0.30
2023-01-19T22:45:59.126Z,0.30
2023-01-19T22:51:02.613Z,0.30
2023-01-19T22:56:13.782Z,0.30
2023-01-19T23:01:19.492Z,0.40
2023-01-19T23:06:24.155Z,0.40
2023-01-19T23:11:28.451Z,0.30
2023-01-19T23:16:33.591Z,0.50
2023-01-19T23:21:37.417Z,0.50
2023-01-19T23:26:41.312Z,0.60
2023-01-19T23:31:47.313Z,0.50
2023-01-19T23:36:51.955Z,0.50
2023-01-19T23:41:55.714Z,0.50
2023-01-19T23:47:01.032Z,0.50
2023-01-19T23:52:05.786Z,0.50
2023-01-19T23:57:09.617Z,0.60
